Terminal Aerodrome Forecast
Issued by NWS

Home | Current Version | Previous Version | Text Only | Print | Product List | Glossary On
Versions: 1 2 3 4 5 6 7 8 9 10 11 12 13 14 15 16
000
FTUS41 KPBZ 301134
TAFAGC
TAF
KAGC 301134Z 3012/3112 VRB03KT 5SM -RA BR OVC110
     FM301400 25008KT P6SM BKN050
     FM310900 VRB02KT 5SM BR SCT050=

USA.gov is the U.S. government's official web portal to all federal, state and local government web resources and services.